sensor_id;sensor_type;location;lat;lon;timestamp;temperature;humidity
612;DHT22;293;53.888;11.464;2023-05-10T00:01:43;12.90;84.30
612;DHT22;293;53.888;11.464;2023-05-10T00:04:10;12.90;84.50
612;DHT22;293;53.888;11.464;2023-05-10T00:06:37;12.90;84.60
612;DHT22;293;53.888;11.464;2023-05-10T00:09:05;12.90;84.60
612;DHT22;293;53.888;11.464;2023-05-10T00:11:32;12.90;84.50
612;DHT22;293;53.888;11.464;2023-05-10T00:13:59;12.80;84.70
612;DHT22;293;53.888;11.464;2023-05-10T00:16:26;12.90;85.20
612;DHT22;293;53.888;11.464;2023-05-10T00:18:52;12.90;85.70
612;DHT22;293;53.888;11.464;2023-05-10T00:21:19;12.80;85.00
612;DHT22;293;53.888;11.464;2023-05-10T00:23:46;12.80;85.60
612;DHT22;293;53.888;11.464;2023-05-10T00:26:15;12.80;85.20
612;DHT22;293;53.888;11.464;2023-05-10T00:28:42;12.80;85.20
612;DHT22;293;53.888;11.464;2023-05-10T00:31:09;12.70;85.70
612;DHT22;293;53.888;11.464;2023-05-10T00:33:35;12.70;86.10
612;DHT22;293;53.888;11.464;2023-05-10T00:36:03;12.70;85.90
612;DHT22;293;53.888;11.464;2023-05-10T00:38:33;12.70;85.70
612;DHT22;293;53.888;11.464;2023-05-10T00:41:00;12.70;85.90
612;DHT22;293;53.888;11.464;2023-05-10T00:43:28;12.70;86.00
612;DHT22;293;53.888;11.464;2023-05-10T00:45:55;12.60;86.30
612;DHT22;293;53.888;11.464;2023-05-10T00:48:22;12.70;86.10
612;DHT22;293;53.888;11.464;2023-05-10T00:50:49;12.60;86.40
612;DHT22;293;53.888;11.464;2023-05-10T00:53:16;12.60;86.50
612;DHT22;293;53.888;11.464;2023-05-10T00:55:43;12.60;86.40
612;DHT22;293;53.888;11.464;2023-05-10T00:58:10;12.60;86.40
612;DHT22;293;53.888;11.464;2023-05-10T01:00:42;12.60;86.60
612;DHT22;293;53.888;11.464;2023-05-10T01:03:10;12.60;86.40
612;DHT22;293;53.888;11.464;2023-05-10T01:05:36;12.60;87.10
612;DHT22;293;53.888;11.464;2023-05-10T01:08:04;12.50;87.60
612;DHT22;293;53.888;11.464;2023-05-10T01:10:31;12.50;87.80
612;DHT22;293;53.888;11.464;2023-05-10T01:12:59;12.50;87.80
612;DHT22;293;53.888;11.464;2023-05-10T01:15:26;12.50;88.10
612;DHT22;293;53.888;11.464;2023-05-10T01:17:55;12.50;88.00
612;DHT22;293;53.888;11.464;2023-05-10T01:20:23;12.40;88.00
612;DHT22;293;53.888;11.464;2023-05-10T01:23:40;12.50;89.00
612;DHT22;293;53.888;11.464;2023-05-10T01:26:39;12.50;89.00
612;DHT22;293;53.888;11.464;2023-05-10T01:29:42;12.40;89.00
612;DHT22;293;53.888;11.464;2023-05-10T01:32:21;12.40;88.80
612;DHT22;293;53.888;11.464;2023-05-10T01:34:55;12.40;89.60
612;DHT22;293;53.888;11.464;2023-05-10T01:37:33;12.30;89.20
612;DHT22;293;53.888;11.464;2023-05-10T01:40:10;12.30;89.60
612;DHT22;293;53.888;11.464;2023-05-10T01:42:46;12.30;90.00
612;DHT22;293;53.888;11.464;2023-05-10T01:45:19;12.30;90.30
612;DHT22;293;53.888;11.464;2023-05-10T01:47:54;12.30;90.10
612;DHT22;293;53.888;11.464;2023-05-10T01:50:28;12.30;90.00
612;DHT22;293;53.888;11.464;2023-05-10T01:52:59;12.30;90.10
612;DHT22;293;53.888;11.464;2023-05-10T01:55:29;12.30;90.20
612;DHT22;293;53.888;11.464;2023-05-10T01:58:05;12.20;90.30
612;DHT22;293;53.888;11.464;2023-05-10T02:00:34;12.20;90.50
612;DHT22;293;53.888;11.464;2023-05-10T02:03:05;12.20;90.50
612;DHT22;293;53.888;11.464;2023-05-10T02:05:34;12.10;90.60
612;DHT22;293;53.888;11.464;2023-05-10T02:08:05;12.10;90.90
612;DHT22;293;53.888;11.464;2023-05-10T02:10:34;12.10;91.00
612;DHT22;293;53.888;11.464;2023-05-10T02:13:02;12.00;91.10
612;DHT22;293;53.888;11.464;2023-05-10T02:15:30;12.00;91.20
612;DHT22;293;53.888;11.464;2023-05-10T02:17:58;12.00;91.40
612;DHT22;293;53.888;11.464;2023-05-10T02:20:29;11.90;91.50
612;DHT22;293;53.888;11.464;2023-05-10T02:22:58;11.90;91.70
612;DHT22;293;53.888;11.464;2023-05-10T02:25:25;11.90;91.90
612;DHT22;293;53.888;11.464;2023-05-10T02:27:54;11.90;91.90
612;DHT22;293;53.888;11.464;2023-05-10T02:30:22;11.80;91.90
612;DHT22;293;53.888;11.464;2023-05-10T02:32:50;11.80;92.10
612;DHT22;293;53.888;11.464;2023-05-10T02:35:18;11.80;92.30
612;DHT22;293;53.888;11.464;2023-05-10T02:37:47;11.80;92.30
612;DHT22;293;53.888;11.464;2023-05-10T02:40:16;11.70;92.70
612;DHT22;293;53.888;11.464;2023-05-10T02:42:44;11.70;92.50
612;DHT22;293;53.888;11.464;2023-05-10T02:45:18;11.70;92.60
612;DHT22;293;53.888;11.464;2023-05-10T02:47:46;11.70;92.80
612;DHT22;293;53.888;11.464;2023-05-10T02:50:13;11.70;92.60
612;DHT22;293;53.888;11.464;2023-05-10T02:52:42;11.70;92.80
612;DHT22;293;53.888;11.464;2023-05-10T02:55:15;11.70;92.80
612;DHT22;293;53.888;11.464;2023-05-10T02:57:50;11.70;93.00
612;DHT22;293;53.888;11.464;2023-05-10T03:00:19;11.60;93.20
612;DHT22;293;53.888;11.464;2023-05-10T03:02:46;11.60;93.20
612;DHT22;293;53.888;11.464;2023-05-10T03:05:13;11.50;93.50
612;DHT22;293;53.888;11.464;2023-05-10T03:07:40;11.50;93.60
612;DHT22;293;53.888;11.464;2023-05-10T03:10:07;11.50;93.60
612;DHT22;293;53.888;11.464;2023-05-10T03:15:35;11.60;93.60
612;DHT22;293;53.888;11.464;2023-05-10T03:18:07;11.60;93.80
612;DHT22;293;53.888;11.464;2023-05-10T03:20:38;11.70;93.70
612;DHT22;293;53.888;11.464;2023-05-10T03:23:12;11.60;93.70
612;DHT22;293;53.888;11.464;2023-05-10T03:25:40;11.60;93.70
612;DHT22;293;53.888;11.464;2023-05-10T03:28:11;11.60;93.70
612;DHT22;293;53.888;11.464;2023-05-10T03:30:39;11.70;94.00
612;DHT22;293;53.888;11.464;2023-05-10T03:33:07;11.50;94.20
612;DHT22;293;53.888;11.464;2023-05-10T03:35:34;11.60;94.30
612;DHT22;293;53.888;11.464;2023-05-10T03:38:01;11.60;94.20
612;DHT22;293;53.888;11.464;2023-05-10T03:40:28;11.70;94.20
612;DHT22;293;53.888;11.464;2023-05-10T03:43:03;11.80;94.20
612;DHT22;293;53.888;11.464;2023-05-10T03:45:31;11.80;94.10
612;DHT22;293;53.888;11.464;2023-05-10T03:47:58;11.90;94.00
612;DHT22;293;53.888;11.464;2023-05-10T03:50:25;12.20;93.80
612;DHT22;293;53.888;11.464;2023-05-10T03:52:52;12.40;93.30
612;DHT22;293;53.888;11.464;2023-05-10T03:55:19;12.60;93.20
612;DHT22;293;53.888;11.464;2023-05-10T03:57:46;12.90;93.00
612;DHT22;293;53.888;11.464;2023-05-10T04:00:15;13.10;92.50
612;DHT22;293;53.888;11.464;2023-05-10T04:02:44;13.40;92.30
612;DHT22;293;53.888;11.464;2023-05-10T04:05:11;13.90;91.60
612;DHT22;293;53.888;11.464;2023-05-10T04:07:38;14.40;90.40
612;DHT22;293;53.888;11.464;2023-05-10T04:10:05;14.60;89.50
612;DHT22;293;53.888;11.464;2023-05-10T04:12:32;14.60;89.10
612;DHT22;293;53.888;11.464;2023-05-10T04:14:59;14.80;88.60
612;DHT22;293;53.888;11.464;2023-05-10T04:17:26;14.90;88.20
612;DHT22;293;53.888;11.464;2023-05-10T04:19:56;15.10;87.60
612;DHT22;293;53.888;11.464;2023-05-10T04:22:22;15.20;86.70
612;DHT22;293;53.888;11.464;2023-05-10T04:24:49;15.40;86.40
612;DHT22;293;53.888;11.464;2023-05-10T04:27:16;15.80;85.70
612;DHT22;293;53.888;11.464;2023-05-10T04:29:43;16.40;85.00
612;DHT22;293;53.888;11.464;2023-05-10T04:32:10;16.90;83.80
612;DHT22;293;53.888;11.464;2023-05-10T04:34:37;17.40;81.10
612;DHT22;293;53.888;11.464;2023-05-10T04:37:05;18.30;79.30
612;DHT22;293;53.888;11.464;2023-05-10T04:39:32;19.10;76.50
612;DHT22;293;53.888;11.464;2023-05-10T04:42:00;19.60;73.40
612;DHT22;293;53.888;11.464;2023-05-10T04:44:28;19.80;73.50
612;DHT22;293;53.888;11.464;2023-05-10T04:46:55;20.10;72.60
612;DHT22;293;53.888;11.464;2023-05-10T04:49:22;20.70;71.50
612;DHT22;293;53.888;11.464;2023-05-10T04:51:48;21.40;70.40
612;DHT22;293;53.888;11.464;2023-05-10T04:54:17;22.10;67.30
612;DHT22;293;53.888;11.464;2023-05-10T04:56:44;22.20;65.80
612;DHT22;293;53.888;11.464;2023-05-10T04:59:10;22.30;66.00
612;DHT22;293;53.888;11.464;2023-05-10T05:01:40;22.50;64.70
612;DHT22;293;53.888;11.464;2023-05-10T05:04:07;22.70;63.90
612;DHT22;293;53.888;11.464;2023-05-10T05:06:34;22.80;63.70
612;DHT22;293;53.888;11.464;2023-05-10T05:09:01;23.00;63.50
612;DHT22;293;53.888;11.464;2023-05-10T05:11:29;24.00;62.30
612;DHT22;293;53.888;11.464;2023-05-10T05:13:56;24.90;60.90
612;DHT22;293;53.888;11.464;2023-05-10T05:16:24;25.30;59.80
612;DHT22;293;53.888;11.464;2023-05-10T05:18:51;26.50;57.60
612;DHT22;293;53.888;11.464;2023-05-10T05:21:19;27.50;55.30
612;DHT22;293;53.888;11.464;2023-05-10T05:23:46;28.30;53.20
612;DHT22;293;53.888;11.464;2023-05-10T05:26:13;28.30;51.80
612;DHT22;293;53.888;11.464;2023-05-10T05:28:42;28.40;51.90
612;DHT22;293;53.888;11.464;2023-05-10T05:31:09;28.80;51.30
612;DHT22;293;53.888;11.464;2023-05-10T05:33:36;29.00;50.60
612;DHT22;293;53.888;11.464;2023-05-10T05:36:04;28.40;50.00
612;DHT22;293;53.888;11.464;2023-05-10T05:38:31;28.80;50.60
612;DHT22;293;53.888;11.464;2023-05-10T05:40:58;29.10;49.90
612;DHT22;293;53.888;11.464;2023-05-10T05:43:25;29.30;49.50
612;DHT22;293;53.888;11.464;2023-05-10T05:45:53;29.20;48.90
612;DHT22;293;53.888;11.464;2023-05-10T05:48:20;29.50;49.60
612;DHT22;293;53.888;11.464;2023-05-10T05:50:47;29.60;48.40
612;DHT22;293;53.888;11.464;2023-05-10T05:53:14;29.70;49.10
612;DHT22;293;53.888;11.464;2023-05-10T05:55:51;29.90;49.00
612;DHT22;293;53.888;11.464;2023-05-10T05:58:18;30.00;48.20
612;DHT22;293;53.888;11.464;2023-05-10T06:00:44;30.00;48.10
612;DHT22;293;53.888;11.464;2023-05-10T06:03:13;29.90;47.90
612;DHT22;293;53.888;11.464;2023-05-10T06:05:40;29.90;48.90
612;DHT22;293;53.888;11.464;2023-05-10T06:08:07;29.40;48.50
612;DHT22;293;53.888;11.464;2023-05-10T06:10:33;29.20;48.50
612;DHT22;293;53.888;11.464;2023-05-10T06:13:00;28.90;49.20
612;DHT22;293;53.888;11.464;2023-05-10T06:15:27;28.60;48.80
612;DHT22;293;53.888;11.464;2023-05-10T06:17:55;27.50;49.50
612;DHT22;293;53.888;11.464;2023-05-10T06:20:24;27.30;50.70
612;DHT22;293;53.888;11.464;2023-05-10T06:22:51;27.60;50.80
612;DHT22;293;53.888;11.464;2023-05-10T06:25:18;28.00;50.60
612;DHT22;293;53.888;11.464;2023-05-10T06:27:45;28.10;49.90
612;DHT22;293;53.888;11.464;2023-05-10T06:30:13;27.80;49.90
612;DHT22;293;53.888;11.464;2023-05-10T06:32:40;27.40;49.80
612;DHT22;293;53.888;11.464;2023-05-10T06:35:09;27.40;50.50
612;DHT22;293;53.888;11.464;2023-05-10T06:37:37;27.70;50.60
612;DHT22;293;53.888;11.464;2023-05-10T06:40:06;27.40;50.00
612;DHT22;293;53.888;11.464;2023-05-10T06:42:33;26.60;51.30
612;DHT22;293;53.888;11.464;2023-05-10T06:45:00;25.50;52.70
612;DHT22;293;53.888;11.464;2023-05-10T06:47:27;24.40;54.20
612;DHT22;293;53.888;11.464;2023-05-10T06:49:54;23.30;56.40
612;DHT22;293;53.888;11.464;2023-05-10T06:52:21;22.40;58.00
612;DHT22;293;53.888;11.464;2023-05-10T06:54:50;21.50;59.20
612;DHT22;293;53.888;11.464;2023-05-10T06:57:17;20.60;61.40
612;DHT22;293;53.888;11.464;2023-05-10T06:59:44;20.00;63.30
612;DHT22;293;53.888;11.464;2023-05-10T07:02:11;19.50;64.40
612;DHT22;293;53.888;11.464;2023-05-10T07:04:38;19.20;67.10
612;DHT22;293;53.888;11.464;2023-05-10T07:07:05;19.00;67.50
612;DHT22;293;53.888;11.464;2023-05-10T07:09:32;18.70;72.30
612;DHT22;293;53.888;11.464;2023-05-10T07:12:00;18.60;71.90
612;DHT22;293;53.888;11.464;2023-05-10T07:14:27;18.30;73.20
612;DHT22;293;53.888;11.464;2023-05-10T07:16:54;18.20;74.90
612;DHT22;293;53.888;11.464;2023-05-10T07:19:21;17.90;74.70
612;DHT22;293;53.888;11.464;2023-05-10T07:21:48;17.90;75.20
612;DHT22;293;53.888;11.464;2023-05-10T07:24:16;17.80;76.20
612;DHT22;293;53.888;11.464;2023-05-10T07:26:43;17.80;75.50
612;DHT22;293;53.888;11.464;2023-05-10T07:29:11;17.70;75.50
612;DHT22;293;53.888;11.464;2023-05-10T07:31:38;17.70;75.60
612;DHT22;293;53.888;11.464;2023-05-10T07:34:07;17.70;76.30
612;DHT22;293;53.888;11.464;2023-05-10T07:36:34;17.80;77.60
612;DHT22;293;53.888;11.464;2023-05-10T07:39:01;17.80;76.40
612;DHT22;293;53.888;11.464;2023-05-10T07:41:28;17.90;77.10
612;DHT22;293;53.888;11.464;2023-05-10T07:43:55;17.80;77.30
612;DHT22;293;53.888;11.464;2023-05-10T07:46:23;17.90;77.30
612;DHT22;293;53.888;11.464;2023-05-10T07:48:50;17.90;77.30
612;DHT22;293;53.888;11.464;2023-05-10T07:51:17;17.90;76.60
612;DHT22;293;53.888;11.464;2023-05-10T07:53:44;17.80;75.80
612;DHT22;293;53.888;11.464;2023-05-10T07:56:22;17.80;75.50
612;DHT22;293;53.888;11.464;2023-05-10T07:58:50;17.80;76.30
612;DHT22;293;53.888;11.464;2023-05-10T08:01:17;17.80;77.70
612;DHT22;293;53.888;11.464;2023-05-10T08:03:46;17.90;78.20
612;DHT22;293;53.888;11.464;2023-05-10T08:06:13;17.90;77.90
612;DHT22;293;53.888;11.464;2023-05-10T08:08:41;18.00;77.00
612;DHT22;293;53.888;11.464;2023-05-10T08:11:08;17.90;76.10
612;DHT22;293;53.888;11.464;2023-05-10T08:13:35;17.90;75.70
612;DHT22;293;53.888;11.464;2023-05-10T08:16:02;18.00;76.10
612;DHT22;293;53.888;11.464;2023-05-10T08:18:29;18.00;75.90
612;DHT22;293;53.888;11.464;2023-05-10T08:20:57;18.00;75.60
612;DHT22;293;53.888;11.464;2023-05-10T08:23:24;18.00;75.70
612;DHT22;293;53.888;11.464;2023-05-10T08:25:51;18.00;76.00
612;DHT22;293;53.888;11.464;2023-05-10T08:28:18;18.00;75.40
612;DHT22;293;53.888;11.464;2023-05-10T08:30:45;18.00;75.40
612;DHT22;293;53.888;11.464;2023-05-10T08:33:12;18.10;75.90
612;DHT22;293;53.888;11.464;2023-05-10T08:35:38;18.10;75.30
612;DHT22;293;53.888;11.464;2023-05-10T08:38:07;18.10;76.90
612;DHT22;293;53.888;11.464;2023-05-10T08:40:34;18.20;75.60
612;DHT22;293;53.888;11.464;2023-05-10T08:43:05;18.30;74.50
612;DHT22;293;53.888;11.464;2023-05-10T08:45:33;18.30;75.70
612;DHT22;293;53.888;11.464;2023-05-10T08:48:05;18.30;75.30
612;DHT22;293;53.888;11.464;2023-05-10T08:50:36;18.30;76.60
612;DHT22;293;53.888;11.464;2023-05-10T08:53:05;18.30;75.70
612;DHT22;293;53.888;11.464;2023-05-10T08:55:34;18.40;75.80
612;DHT22;293;53.888;11.464;2023-05-10T08:58:02;18.60;77.50
612;DHT22;293;53.888;11.464;2023-05-10T09:00:30;18.50;76.70
612;DHT22;293;53.888;11.464;2023-05-10T09:02:57;18.50;77.00
612;DHT22;293;53.888;11.464;2023-05-10T09:05:24;18.50;76.10
612;DHT22;293;53.888;11.464;2023-05-10T09:07:51;18.50;77.00
612;DHT22;293;53.888;11.464;2023-05-10T09:10:19;18.60;77.00
612;DHT22;293;53.888;11.464;2023-05-10T09:12:48;18.70;76.40
612;DHT22;293;53.888;11.464;2023-05-10T09:15:16;18.80;77.00
612;DHT22;293;53.888;11.464;2023-05-10T09:17:45;18.80;76.50
612;DHT22;293;53.888;11.464;2023-05-10T09:20:13;18.80;77.20
612;DHT22;293;53.888;11.464;2023-05-10T09:22:40;18.90;77.10
612;DHT22;293;53.888;11.464;2023-05-10T09:25:08;19.00;76.60
612;DHT22;293;53.888;11.464;2023-05-10T09:27:37;19.00;75.30
612;DHT22;293;53.888;11.464;2023-05-10T09:30:07;19.00;75.90
612;DHT22;293;53.888;11.464;2023-05-10T09:32:39;19.00;76.60
612;DHT22;293;53.888;11.464;2023-05-10T09:35:07;19.00;76.50
612;DHT22;293;53.888;11.464;2023-05-10T09:37:34;19.10;76.50
612;DHT22;293;53.888;11.464;2023-05-10T09:40:05;19.20;76.10
612;DHT22;293;53.888;11.464;2023-05-10T09:42:33;19.40;74.90
612;DHT22;293;53.888;11.464;2023-05-10T09:45:02;19.40;74.40
612;DHT22;293;53.888;11.464;2023-05-10T09:47:31;19.40;75.70
612;DHT22;293;53.888;11.464;2023-05-10T09:49:58;19.40;76.00
612;DHT22;293;53.888;11.464;2023-05-10T09:52:29;19.40;76.50
612;DHT22;293;53.888;11.464;2023-05-10T09:54:58;19.50;76.30
612;DHT22;293;53.888;11.464;2023-05-10T09:57:25;19.50;76.00
612;DHT22;293;53.888;11.464;2023-05-10T09:59:52;19.50;75.60
612;DHT22;293;53.888;11.464;2023-05-10T10:02:21;19.50;75.70
612;DHT22;293;53.888;11.464;2023-05-10T10:04:50;19.60;74.90
612;DHT22;293;53.888;11.464;2023-05-10T10:07:22;19.60;74.20
612;DHT22;293;53.888;11.464;2023-05-10T10:09:51;19.60;75.50
612;DHT22;293;53.888;11.464;2023-05-10T10:12:18;19.70;76.00
612;DHT22;293;53.888;11.464;2023-05-10T10:14:46;19.70;76.00
612;DHT22;293;53.888;11.464;2023-05-10T10:17:15;19.90;75.30
612;DHT22;293;53.888;11.464;2023-05-10T10:19:42;19.90;74.40
612;DHT22;293;53.888;11.464;2023-05-10T10:22:10;20.00;75.40
612;DHT22;293;53.888;11.464;2023-05-10T10:24:38;19.90;74.80
612;DHT22;293;53.888;11.464;2023-05-10T10:27:16;20.00;74.60
612;DHT22;293;53.888;11.464;2023-05-10T10:29:52;20.00;76.10
612;DHT22;293;53.888;11.464;2023-05-10T10:32:32;20.10;76.00
612;DHT22;293;53.888;11.464;2023-05-10T10:35:03;20.20;74.80
612;DHT22;293;53.888;11.464;2023-05-10T10:37:47;20.20;74.80
612;DHT22;293;53.888;11.464;2023-05-10T10:40:24;20.20;75.30
612;DHT22;293;53.888;11.464;2023-05-10T10:42:51;20.30;75.60
612;DHT22;293;53.888;11.464;2023-05-10T10:45:20;20.30;75.90
612;DHT22;293;53.888;11.464;2023-05-10T10:47:47;20.40;76.20
612;DHT22;293;53.888;11.464;2023-05-10T10:50:15;20.50;75.40
612;DHT22;293;53.888;11.464;2023-05-10T10:52:43;20.50;75.30
612;DHT22;293;53.888;11.464;2023-05-10T10:55:12;20.50;74.50
612;DHT22;293;53.888;11.464;2023-05-10T10:57:47;20.50;74.90
612;DHT22;293;53.888;11.464;2023-05-10T11:00:25;20.60;75.00
612;DHT22;293;53.888;11.464;2023-05-10T11:02:53;20.70;74.70
612;DHT22;293;53.888;11.464;2023-05-10T11:05:25;20.70;73.60
612;DHT22;293;53.888;11.464;2023-05-10T11:08:02;20.70;73.60
612;DHT22;293;53.888;11.464;2023-05-10T11:10:34;20.70;73.10
612;DHT22;293;53.888;11.464;2023-05-10T11:13:02;20.70;75.30
612;DHT22;293;53.888;11.464;2023-05-10T11:15:30;20.80;75.10
612;DHT22;293;53.888;11.464;2023-05-10T11:17:57;20.80;74.60
612;DHT22;293;53.888;11.464;2023-05-10T11:20:27;20.80;75.50
612;DHT22;293;53.888;11.464;2023-05-10T11:23:10;20.80;74.80
612;DHT22;293;53.888;11.464;2023-05-10T11:25:42;20.90;75.40
612;DHT22;293;53.888;11.464;2023-05-10T11:28:10;20.90;74.10
612;DHT22;293;53.888;11.464;2023-05-10T11:30:39;20.90;74.50
612;DHT22;293;53.888;11.464;2023-05-10T11:33:06;20.90;74.80
612;DHT22;293;53.888;11.464;2023-05-10T11:35:37;21.00;74.90
612;DHT22;293;53.888;11.464;2023-05-10T11:38:06;21.00;76.10
612;DHT22;293;53.888;11.464;2023-05-10T11:40:33;21.00;74.70
612;DHT22;293;53.888;11.464;2023-05-10T11:43:02;21.10;75.10
612;DHT22;293;53.888;11.464;2023-05-10T11:45:32;21.10;74.70
612;DHT22;293;53.888;11.464;2023-05-10T11:47:59;21.10;74.30
612;DHT22;293;53.888;11.464;2023-05-10T11:50:26;21.10;73.70
612;DHT22;293;53.888;11.464;2023-05-10T11:52:54;21.20;73.50
612;DHT22;293;53.888;11.464;2023-05-10T11:55:21;21.20;74.40
612;DHT22;293;53.888;11.464;2023-05-10T11:57:52;21.10;74.50
612;DHT22;293;53.888;11.464;2023-05-10T12:00:20;21.10;75.50
612;DHT22;293;53.888;11.464;2023-05-10T12:02:47;21.20;75.40
612;DHT22;293;53.888;11.464;2023-05-10T12:05:15;21.40;75.10
612;DHT22;293;53.888;11.464;2023-05-10T12:07:42;21.60;74.60
612;DHT22;293;53.888;11.464;2023-05-10T12:10:11;21.80;74.30
612;DHT22;293;53.888;11.464;2023-05-10T12:12:40;22.00;74.50
612;DHT22;293;53.888;11.464;2023-05-10T12:15:12;22.30;74.50
612;DHT22;293;53.888;11.464;2023-05-10T12:17:40;22.70;74.10
612;DHT22;293;53.888;11.464;2023-05-10T12:20:14;23.00;72.20
612;DHT22;293;53.888;11.464;2023-05-10T12:22:44;23.20;72.90
612;DHT22;293;53.888;11.464;2023-05-10T12:25:11;23.40;72.20
612;DHT22;293;53.888;11.464;2023-05-10T12:27:38;23.60;71.80
612;DHT22;293;53.888;11.464;2023-05-10T12:30:06;23.50;70.60
612;DHT22;293;53.888;11.464;2023-05-10T12:32:43;23.60;69.80
612;DHT22;293;53.888;11.464;2023-05-10T12:35:10;23.60;69.10
612;DHT22;293;53.888;11.464;2023-05-10T12:37:37;23.60;69.30
612;DHT22;293;53.888;11.464;2023-05-10T12:40:07;23.50;69.50
612;DHT22;293;53.888;11.464;2023-05-10T12:42:35;23.40;70.50
612;DHT22;293;53.888;11.464;2023-05-10T12:45:02;23.40;70.20
612;DHT22;293;53.888;11.464;2023-05-10T12:47:30;23.40;69.70
612;DHT22;293;53.888;11.464;2023-05-10T12:49:59;23.40;68.80
612;DHT22;293;53.888;11.464;2023-05-10T12:52:26;23.40;69.50
612;DHT22;293;53.888;11.464;2023-05-10T12:54:53;23.30;69.00
612;DHT22;293;53.888;11.464;2023-05-10T12:57:20;23.30;69.80
612;DHT22;293;53.888;11.464;2023-05-10T12:59:47;23.30;70.10
612;DHT22;293;53.888;11.464;2023-05-10T13:02:15;23.20;69.80
612;DHT22;293;53.888;11.464;2023-05-10T13:04:43;23.20;69.70
612;DHT22;293;53.888;11.464;2023-05-10T13:07:13;23.20;70.30
612;DHT22;293;53.888;11.464;2023-05-10T13:09:40;23.20;70.70
612;DHT22;293;53.888;11.464;2023-05-10T13:12:08;23.10;70.80
612;DHT22;293;53.888;11.464;2023-05-10T13:14:35;23.20;70.40
612;DHT22;293;53.888;11.464;2023-05-10T13:17:02;23.20;71.30
612;DHT22;293;53.888;11.464;2023-05-10T13:19:29;23.10;71.60
612;DHT22;293;53.888;11.464;2023-05-10T13:21:56;23.00;72.20
612;DHT22;293;53.888;11.464;2023-05-10T13:24:25;22.90;72.50
612;DHT22;293;53.888;11.464;2023-05-10T13:26:52;22.70;71.50
612;DHT22;293;53.888;11.464;2023-05-10T13:29:18;22.60;72.80
612;DHT22;293;53.888;11.464;2023-05-10T13:31:46;22.50;73.10
612;DHT22;293;53.888;11.464;2023-05-10T13:34:13;22.30;73.40
612;DHT22;293;53.888;11.464;2023-05-10T13:36:40;22.30;73.60
612;DHT22;293;53.888;11.464;2023-05-10T13:39:07;22.20;74.10
612;DHT22;293;53.888;11.464;2023-05-10T13:41:35;22.10;74.60
612;DHT22;293;53.888;11.464;2023-05-10T13:44:02;21.90;74.80
612;DHT22;293;53.888;11.464;2023-05-10T13:46:29;21.80;75.10
612;DHT22;293;53.888;11.464;2023-05-10T13:48:56;21.60;75.10
612;DHT22;293;53.888;11.464;2023-05-10T13:51:23;21.50;75.60
612;DHT22;293;53.888;11.464;2023-05-10T13:53:50;21.30;76.40
612;DHT22;293;53.888;11.464;2023-05-10T13:56:17;21.20;76.50
612;DHT22;293;53.888;11.464;2023-05-10T13:58:45;21.10;76.60
612;DHT22;293;53.888;11.464;2023-05-10T14:01:13;20.90;77.10
612;DHT22;293;53.888;11.464;2023-05-10T14:03:40;20.90;77.70
612;DHT22;293;53.888;11.464;2023-05-10T14:06:07;20.80;77.80
612;DHT22;293;53.888;11.464;2023-05-10T14:08:35;20.80;78.00
612;DHT22;293;53.888;11.464;2023-05-10T14:11:02;20.70;78.10
612;DHT22;293;53.888;11.464;2023-05-10T14:13:29;20.70;78.00
612;DHT22;293;53.888;11.464;2023-05-10T14:15:57;20.70;78.00
612;DHT22;293;53.888;11.464;2023-05-10T14:18:26;20.60;78.70
612;DHT22;293;53.888;11.464;2023-05-10T14:20:53;20.60;79.10
612;DHT22;293;53.888;11.464;2023-05-10T14:23:21;20.50;79.30
612;DHT22;293;53.888;11.464;2023-05-10T14:25:50;20.50;79.80
612;DHT22;293;53.888;11.464;2023-05-10T14:28:17;20.50;79.70
612;DHT22;293;53.888;11.464;2023-05-10T14:30:45;20.50;80.30
612;DHT22;293;53.888;11.464;2023-05-10T14:33:14;20.60;80.10
612;DHT22;293;53.888;11.464;2023-05-10T14:35:41;20.60;80.10
612;DHT22;293;53.888;11.464;2023-05-10T14:38:08;20.70;80.70
612;DHT22;293;53.888;11.464;2023-05-10T14:40:36;20.70;80.60
612;DHT22;293;53.888;11.464;2023-05-10T14:43:03;20.90;81.50
612;DHT22;293;53.888;11.464;2023-05-10T14:45:30;20.90;80.00
612;DHT22;293;53.888;11.464;2023-05-10T14:47:58;21.00;79.70
612;DHT22;293;53.888;11.464;2023-05-10T14:50:26;21.10;79.80
612;DHT22;293;53.888;11.464;2023-05-10T14:52:53;21.20;80.10
612;DHT22;293;53.888;11.464;2023-05-10T14:55:20;21.30;80.30
612;DHT22;293;53.888;11.464;2023-05-10T14:57:47;21.30;80.10
612;DHT22;293;53.888;11.464;2023-05-10T15:00:16;21.40;80.40
612;DHT22;293;53.888;11.464;2023-05-10T15:02:44;21.40;80.30
612;DHT22;293;53.888;11.464;2023-05-10T15:05:11;21.40;80.10
612;DHT22;293;53.888;11.464;2023-05-10T15:07:40;21.40;80.20
612;DHT22;293;53.888;11.464;2023-05-10T15:10:09;21.40;80.30
612;DHT22;293;53.888;11.464;2023-05-10T15:12:36;21.30;80.50
612;DHT22;293;53.888;11.464;2023-05-10T15:15:03;21.20;81.50
612;DHT22;293;53.888;11.464;2023-05-10T15:17:30;21.20;81.10
612;DHT22;293;53.888;11.464;2023-05-10T15:19:57;20.80;82.10
612;DHT22;293;53.888;11.464;2023-05-10T15:22:24;20.80;84.70
612;DHT22;293;53.888;11.464;2023-05-10T15:24:55;20.60;85.70
612;DHT22;293;53.888;11.464;2023-05-10T15:27:22;20.50;87.10
612;DHT22;293;53.888;11.464;2023-05-10T15:29:48;20.40;88.80
612;DHT22;293;53.888;11.464;2023-05-10T15:32:15;20.20;89.20
612;DHT22;293;53.888;11.464;2023-05-10T15:34:42;20.10;89.80
612;DHT22;293;53.888;11.464;2023-05-10T15:37:09;20.00;90.30
612;DHT22;293;53.888;11.464;2023-05-10T15:39:36;19.90;90.80
612;DHT22;293;53.888;11.464;2023-05-10T15:42:05;19.90;91.10
612;DHT22;293;53.888;11.464;2023-05-10T15:44:32;19.80;91.20
612;DHT22;293;53.888;11.464;2023-05-10T15:47:00;19.70;91.70
612;DHT22;293;53.888;11.464;2023-05-10T15:49:28;19.70;91.70
612;DHT22;293;53.888;11.464;2023-05-10T15:51:54;19.60;91.80
612;DHT22;293;53.888;11.464;2023-05-10T15:54:21;19.60;92.00
612;DHT22;293;53.888;11.464;2023-05-10T15:56:48;19.50;92.40
612;DHT22;293;53.888;11.464;2023-05-10T15:59:16;19.40;92.90
612;DHT22;293;53.888;11.464;2023-05-10T16:01:43;19.40;92.70
612;DHT22;293;53.888;11.464;2023-05-10T16:04:10;19.30;93.50
612;DHT22;293;53.888;11.464;2023-05-10T16:06:38;19.20;93.90
612;DHT22;293;53.888;11.464;2023-05-10T16:09:05;19.20;94.50
612;DHT22;293;53.888;11.464;2023-05-10T16:11:32;19.10;94.80
612;DHT22;293;53.888;11.464;2023-05-10T16:13:59;19.10;95.20
612;DHT22;293;53.888;11.464;2023-05-10T16:16:27;19.10;95.30
612;DHT22;293;53.888;11.464;2023-05-10T16:18:54;19.10;95.30
612;DHT22;293;53.888;11.464;2023-05-10T16:21:21;19.10;95.40
612;DHT22;293;53.888;11.464;2023-05-10T16:23:48;19.00;95.60
612;DHT22;293;53.888;11.464;2023-05-10T16:26:15;19.00;95.60
612;DHT22;293;53.888;11.464;2023-05-10T16:28:42;19.00;95.70